sensor_id;sensor_type;location;lat;lon;timestamp;P1;durP1;ratioP1;P2;durP2;ratioP2
33836;SDS011;20140;49.356;8.812;2022-12-29T00:02:10;5.83;;;4.03;;
33836;SDS011;20140;49.356;8.812;2022-12-29T00:04:37;5.05;;;3.40;;
33836;SDS011;20140;49.356;8.812;2022-12-29T00:07:03;4.97;;;3.92;;
33836;SDS011;20140;49.356;8.812;2022-12-29T00:09:29;4.77;;;3.87;;
33836;SDS011;20140;49.356;8.812;2022-12-29T00:11:55;5.60;;;3.95;;
33836;SDS011;20140;49.356;8.812;2022-12-29T00:14:21;5.07;;;3.67;;
33836;SDS011;20140;49.356;8.812;2022-12-29T00:17:06;4.80;;;3.60;;
33836;SDS011;20140;49.356;8.812;2022-12-29T00:19:31;4.90;;;3.73;;
33836;SDS011;20140;49.356;8.812;2022-12-29T00:22:15;4.75;;;3.13;;
33836;SDS011;20140;49.356;8.812;2022-12-29T00:25:00;3.80;;;3.43;;
33836;SDS011;20140;49.356;8.812;2022-12-29T00:27:26;4.65;;;3.45;;
33836;SDS011;20140;49.356;8.812;2022-12-29T00:30:12;5.38;;;4.30;;
33836;SDS011;20140;49.356;8.812;2022-12-29T00:32:59;7.27;;;4.57;;
33836;SDS011;20140;49.356;8.812;2022-12-29T00:35:53;5.47;;;4.13;;
33836;SDS011;20140;49.356;8.812;2022-12-29T00:38:29;3.70;;;3.08;;
33836;SDS011;20140;49.356;8.812;2022-12-29T00:41:16;6.82;;;3.80;;
33836;SDS011;20140;49.356;8.812;2022-12-29T00:44:00;4.28;;;3.65;;
33836;SDS011;20140;49.356;8.812;2022-12-29T00:46:32;3.80;;;3.40;;
33836;SDS011;20140;49.356;8.812;2022-12-29T00:48:58;4.60;;;3.57;;
33836;SDS011;20140;49.356;8.812;2022-12-29T00:51:43;6.35;;;3.90;;
33836;SDS011;20140;49.356;8.812;2022-12-29T00:54:09;5.63;;;3.28;;
33836;SDS011;20140;49.356;8.812;2022-12-29T00:56:34;4.45;;;3.08;;
33836;SDS011;20140;49.356;8.812;2022-12-29T00:59:01;5.20;;;3.20;;
33836;SDS011;20140;49.356;8.812;2022-12-29T01:01:27;4.70;;;3.58;;
33836;SDS011;20140;49.356;8.812;2022-12-29T01:03:53;4.68;;;3.08;;
33836;SDS011;20140;49.356;8.812;2022-12-29T01:06:18;7.07;;;3.00;;
33836;SDS011;20140;49.356;8.812;2022-12-29T01:08:44;3.67;;;3.10;;
33836;SDS011;20140;49.356;8.812;2022-12-29T01:11:10;5.30;;;2.73;;
33836;SDS011;20140;49.356;8.812;2022-12-29T01:13:37;4.50;;;2.90;;
33836;SDS011;20140;49.356;8.812;2022-12-29T01:16:03;4.63;;;2.58;;
33836;SDS011;20140;49.356;8.812;2022-12-29T01:18:30;3.40;;;2.30;;
33836;SDS011;20140;49.356;8.812;2022-12-29T01:21:03;4.55;;;2.08;;
33836;SDS011;20140;49.356;8.812;2022-12-29T01:23:30;3.45;;;1.30;;
33836;SDS011;20140;49.356;8.812;2022-12-29T01:25:55;2.42;;;1.42;;
33836;SDS011;20140;49.356;8.812;2022-12-29T01:28:21;1.80;;;1.27;;
33836;SDS011;20140;49.356;8.812;2022-12-29T01:30:47;3.88;;;2.03;;
33836;SDS011;20140;49.356;8.812;2022-12-29T01:33:12;5.40;;;1.60;;
33836;SDS011;20140;49.356;8.812;2022-12-29T01:35:38;2.90;;;1.27;;
33836;SDS011;20140;49.356;8.812;2022-12-29T01:38:04;3.33;;;1.73;;
33836;SDS011;20140;49.356;8.812;2022-12-29T01:40:30;4.10;;;1.90;;
33836;SDS011;20140;49.356;8.812;2022-12-29T01:42:55;3.10;;;1.45;;
33836;SDS011;20140;49.356;8.812;2022-12-29T01:45:21;4.07;;;1.80;;
33836;SDS011;20140;49.356;8.812;2022-12-29T01:47:54;2.95;;;1.08;;
33836;SDS011;20140;49.356;8.812;2022-12-29T01:50:26;2.40;;;1.63;;
33836;SDS011;20140;49.356;8.812;2022-12-29T01:53:08;7.45;;;2.63;;
33836;SDS011;20140;49.356;8.812;2022-12-29T01:55:56;2.38;;;2.10;;
33836;SDS011;20140;49.356;8.812;2022-12-29T01:58:27;4.47;;;1.60;;
33836;SDS011;20140;49.356;8.812;2022-12-29T02:00:57;1.83;;;1.37;;
33836;SDS011;20140;49.356;8.812;2022-12-29T02:03:24;2.90;;;1.55;;
33836;SDS011;20140;49.356;8.812;2022-12-29T02:05:52;3.65;;;1.42;;
33836;SDS011;20140;49.356;8.812;2022-12-29T02:08:26;2.88;;;1.38;;
33836;SDS011;20140;49.356;8.812;2022-12-29T02:10:54;3.92;;;2.03;;
33836;SDS011;20140;49.356;8.812;2022-12-29T02:13:23;4.00;;;1.60;;
33836;SDS011;20140;49.356;8.812;2022-12-29T02:18:51;1.42;;;1.20;;
33836;SDS011;20140;49.356;8.812;2022-12-29T02:21:37;3.10;;;1.38;;
33836;SDS011;20140;49.356;8.812;2022-12-29T02:25:01;3.28;;;2.20;;
33836;SDS011;20140;49.356;8.812;2022-12-29T02:27:31;3.75;;;1.60;;
33836;SDS011;20140;49.356;8.812;2022-12-29T02:30:07;1.45;;;1.20;;
33836;SDS011;20140;49.356;8.812;2022-12-29T02:35:23;2.67;;;1.70;;
33836;SDS011;20140;49.356;8.812;2022-12-29T02:40:51;3.85;;;2.05;;
33836;SDS011;20140;49.356;8.812;2022-12-29T02:46:18;2.33;;;1.70;;
33836;SDS011;20140;49.356;8.812;2022-12-29T02:48:54;1.70;;;1.50;;
33836;SDS011;20140;49.356;8.812;2022-12-29T02:51:58;2.38;;;1.30;;
33836;SDS011;20140;49.356;8.812;2022-12-29T02:54:28;2.40;;;1.35;;
33836;SDS011;20140;49.356;8.812;2022-12-29T02:57:13;4.97;;;2.03;;
33836;SDS011;20140;49.356;8.812;2022-12-29T02:59:45;3.23;;;1.93;;
33836;SDS011;20140;49.356;8.812;2022-12-29T03:05:03;4.63;;;1.95;;
33836;SDS011;20140;49.356;8.812;2022-12-29T03:07:33;2.20;;;1.40;;
33836;SDS011;20140;49.356;8.812;2022-12-29T03:13:06;5.70;;;1.77;;
33836;SDS011;20140;49.356;8.812;2022-12-29T03:21:08;2.63;;;1.80;;
33836;SDS011;20140;49.356;8.812;2022-12-29T03:24:13;2.85;;;1.48;;
33836;SDS011;20140;49.356;8.812;2022-12-29T03:26:40;2.60;;;1.65;;
33836;SDS011;20140;49.356;8.812;2022-12-29T03:29:07;4.68;;;1.73;;
33836;SDS011;20140;49.356;8.812;2022-12-29T03:31:33;3.35;;;1.80;;
33836;SDS011;20140;49.356;8.812;2022-12-29T03:34:00;3.33;;;1.60;;
33836;SDS011;20140;49.356;8.812;2022-12-29T03:36:27;4.70;;;1.73;;
33836;SDS011;20140;49.356;8.812;2022-12-29T03:38:59;3.75;;;1.73;;
33836;SDS011;20140;49.356;8.812;2022-12-29T03:41:33;2.20;;;1.42;;
33836;SDS011;20140;49.356;8.812;2022-12-29T03:43:59;3.90;;;1.85;;
33836;SDS011;20140;49.356;8.812;2022-12-29T03:46:25;5.03;;;1.53;;
33836;SDS011;20140;49.356;8.812;2022-12-29T03:48:50;3.20;;;1.63;;
33836;SDS011;20140;49.356;8.812;2022-12-29T03:51:16;5.30;;;1.60;;
33836;SDS011;20140;49.356;8.812;2022-12-29T03:53:41;5.55;;;1.70;;
33836;SDS011;20140;49.356;8.812;2022-12-29T03:56:07;3.23;;;1.57;;
33836;SDS011;20140;49.356;8.812;2022-12-29T03:58:32;1.93;;;1.30;;
33836;SDS011;20140;49.356;8.812;2022-12-29T04:00:58;3.67;;;2.30;;
33836;SDS011;20140;49.356;8.812;2022-12-29T04:03:23;1.73;;;1.00;;
33836;SDS011;20140;49.356;8.812;2022-12-29T04:05:49;2.78;;;1.30;;
33836;SDS011;20140;49.356;8.812;2022-12-29T04:08:14;2.60;;;1.10;;
33836;SDS011;20140;49.356;8.812;2022-12-29T04:10:40;1.90;;;1.27;;
33836;SDS011;20140;49.356;8.812;2022-12-29T04:13:05;3.67;;;1.27;;
33836;SDS011;20140;49.356;8.812;2022-12-29T04:15:31;1.98;;;1.02;;
33836;SDS011;20140;49.356;8.812;2022-12-29T04:17:57;1.95;;;1.08;;
33836;SDS011;20140;49.356;8.812;2022-12-29T04:20:22;2.05;;;0.98;;
33836;SDS011;20140;49.356;8.812;2022-12-29T04:23:06;2.13;;;1.20;;
33836;SDS011;20140;49.356;8.812;2022-12-29T04:25:32;3.25;;;1.08;;
33836;SDS011;20140;49.356;8.812;2022-12-29T04:27:58;3.37;;;1.40;;
33836;SDS011;20140;49.356;8.812;2022-12-29T04:30:24;1.93;;;1.00;;
33836;SDS011;20140;49.356;8.812;2022-12-29T04:32:49;1.20;;;0.90;;
33836;SDS011;20140;49.356;8.812;2022-12-29T04:35:15;1.60;;;0.93;;
33836;SDS011;20140;49.356;8.812;2022-12-29T04:37:40;2.42;;;0.82;;
33836;SDS011;20140;49.356;8.812;2022-12-29T04:40:06;1.42;;;1.05;;
33836;SDS011;20140;49.356;8.812;2022-12-29T04:42:32;1.57;;;1.10;;
33836;SDS011;20140;49.356;8.812;2022-12-29T04:44:58;1.47;;;0.90;;
33836;SDS011;20140;49.356;8.812;2022-12-29T04:47:23;2.03;;;0.83;;
33836;SDS011;20140;49.356;8.812;2022-12-29T04:49:49;1.27;;;0.88;;
33836;SDS011;20140;49.356;8.812;2022-12-29T04:52:15;1.53;;;0.80;;
33836;SDS011;20140;49.356;8.812;2022-12-29T04:54:40;2.33;;;0.97;;
33836;SDS011;20140;49.356;8.812;2022-12-29T04:57:06;4.10;;;1.70;;
33836;SDS011;20140;49.356;8.812;2022-12-29T04:59:31;1.10;;;0.80;;
33836;SDS011;20140;49.356;8.812;2022-12-29T05:01:57;4.25;;;1.60;;
33836;SDS011;20140;49.356;8.812;2022-12-29T05:04:22;2.07;;;1.00;;
33836;SDS011;20140;49.356;8.812;2022-12-29T05:06:48;2.07;;;1.10;;
33836;SDS011;20140;49.356;8.812;2022-12-29T05:09:14;2.88;;;1.20;;
33836;SDS011;20140;49.356;8.812;2022-12-29T05:11:39;1.17;;;0.77;;
33836;SDS011;20140;49.356;8.812;2022-12-29T05:14:05;5.00;;;1.73;;
33836;SDS011;20140;49.356;8.812;2022-12-29T05:16:30;1.67;;;1.23;;
33836;SDS011;20140;49.356;8.812;2022-12-29T05:18:56;3.53;;;0.98;;
33836;SDS011;20140;49.356;8.812;2022-12-29T05:21:21;3.10;;;1.37;;
33836;SDS011;20140;49.356;8.812;2022-12-29T05:23:47;1.47;;;0.90;;
33836;SDS011;20140;49.356;8.812;2022-12-29T05:26:12;2.65;;;0.80;;
33836;SDS011;20140;49.356;8.812;2022-12-29T05:28:38;3.63;;;1.20;;
33836;SDS011;20140;49.356;8.812;2022-12-29T05:31:03;2.53;;;1.10;;
33836;SDS011;20140;49.356;8.812;2022-12-29T05:33:29;2.83;;;1.33;;
33836;SDS011;20140;49.356;8.812;2022-12-29T05:35:54;1.10;;;1.00;;
33836;SDS011;20140;49.356;8.812;2022-12-29T05:38:20;1.80;;;0.95;;
33836;SDS011;20140;49.356;8.812;2022-12-29T05:40:45;1.83;;;1.00;;
33836;SDS011;20140;49.356;8.812;2022-12-29T05:43:11;2.40;;;1.40;;
33836;SDS011;20140;49.356;8.812;2022-12-29T05:45:36;1.63;;;1.23;;
33836;SDS011;20140;49.356;8.812;2022-12-29T05:48:02;1.45;;;1.20;;
33836;SDS011;20140;49.356;8.812;2022-12-29T05:50:28;3.08;;;1.23;;
33836;SDS011;20140;49.356;8.812;2022-12-29T05:52:53;1.65;;;1.15;;
33836;SDS011;20140;49.356;8.812;2022-12-29T05:55:19;3.57;;;1.50;;
33836;SDS011;20140;49.356;8.812;2022-12-29T05:57:45;1.92;;;1.17;;
33836;SDS011;20140;49.356;8.812;2022-12-29T06:00:11;4.28;;;1.30;;
33836;SDS011;20140;49.356;8.812;2022-12-29T06:02:37;1.50;;;0.80;;
33836;SDS011;20140;49.356;8.812;2022-12-29T06:05:02;3.17;;;1.65;;
33836;SDS011;20140;49.356;8.812;2022-12-29T06:07:28;1.20;;;0.90;;
33836;SDS011;20140;49.356;8.812;2022-12-29T06:09:53;1.80;;;1.33;;
33836;SDS011;20140;49.356;8.812;2022-12-29T06:12:19;1.87;;;1.33;;
33836;SDS011;20140;49.356;8.812;2022-12-29T06:14:44;1.40;;;1.30;;
33836;SDS011;20140;49.356;8.812;2022-12-29T06:17:10;2.95;;;1.15;;
33836;SDS011;20140;49.356;8.812;2022-12-29T06:19:35;1.75;;;1.00;;
33836;SDS011;20140;49.356;8.812;2022-12-29T06:22:01;2.37;;;1.30;;
33836;SDS011;20140;49.356;8.812;2022-12-29T06:24:27;2.90;;;1.40;;
33836;SDS011;20140;49.356;8.812;2022-12-29T06:26:52;2.30;;;1.23;;
33836;SDS011;20140;49.356;8.812;2022-12-29T06:29:18;1.80;;;1.33;;
33836;SDS011;20140;49.356;8.812;2022-12-29T06:31:45;2.53;;;1.23;;
33836;SDS011;20140;49.356;8.812;2022-12-29T06:34:11;5.50;;;1.63;;
33836;SDS011;20140;49.356;8.812;2022-12-29T06:36:37;1.92;;;1.13;;
33836;SDS011;20140;49.356;8.812;2022-12-29T06:39:03;5.20;;;1.50;;
33836;SDS011;20140;49.356;8.812;2022-12-29T06:41:28;2.15;;;1.60;;
33836;SDS011;20140;49.356;8.812;2022-12-29T06:43:54;3.42;;;1.40;;
33836;SDS011;20140;49.356;8.812;2022-12-29T06:46:19;2.00;;;1.23;;
33836;SDS011;20140;49.356;8.812;2022-12-29T06:48:45;1.70;;;1.40;;
33836;SDS011;20140;49.356;8.812;2022-12-29T06:51:10;2.07;;;1.40;;
33836;SDS011;20140;49.356;8.812;2022-12-29T06:53:36;2.45;;;1.52;;
33836;SDS011;20140;49.356;8.812;2022-12-29T06:56:01;2.60;;;1.37;;
33836;SDS011;20140;49.356;8.812;2022-12-29T06:58:27;3.83;;;1.43;;
33836;SDS011;20140;49.356;8.812;2022-12-29T07:00:52;3.87;;;1.70;;
33836;SDS011;20140;49.356;8.812;2022-12-29T07:03:18;1.42;;;1.30;;
33836;SDS011;20140;49.356;8.812;2022-12-29T07:05:43;4.35;;;1.70;;
33836;SDS011;20140;49.356;8.812;2022-12-29T07:08:09;1.90;;;1.50;;
33836;SDS011;20140;49.356;8.812;2022-12-29T07:10:34;3.87;;;1.80;;
33836;SDS011;20140;49.356;8.812;2022-12-29T07:13:00;3.67;;;1.48;;
33836;SDS011;20140;49.356;8.812;2022-12-29T07:15:26;4.38;;;1.35;;
33836;SDS011;20140;49.356;8.812;2022-12-29T07:17:51;4.93;;;1.55;;
33836;SDS011;20140;49.356;8.812;2022-12-29T07:20:17;4.10;;;1.57;;
33836;SDS011;20140;49.356;8.812;2022-12-29T07:22:42;3.07;;;1.50;;
33836;SDS011;20140;49.356;8.812;2022-12-29T07:25:08;3.20;;;1.80;;
33836;SDS011;20140;49.356;8.812;2022-12-29T07:27:34;2.03;;;1.30;;
33836;SDS011;20140;49.356;8.812;2022-12-29T07:29:59;2.63;;;1.40;;
33836;SDS011;20140;49.356;8.812;2022-12-29T07:32:25;4.20;;;1.40;;
33836;SDS011;20140;49.356;8.812;2022-12-29T07:34:50;3.10;;;1.40;;
33836;SDS011;20140;49.356;8.812;2022-12-29T07:37:16;1.97;;;1.23;;
33836;SDS011;20140;49.356;8.812;2022-12-29T07:39:42;4.88;;;1.35;;
33836;SDS011;20140;49.356;8.812;2022-12-29T07:42:08;1.50;;;1.30;;
33836;SDS011;20140;49.356;8.812;2022-12-29T07:44:33;2.50;;;1.38;;
33836;SDS011;20140;49.356;8.812;2022-12-29T07:46:59;3.93;;;1.93;;
33836;SDS011;20140;49.356;8.812;2022-12-29T07:49:24;1.87;;;1.50;;
33836;SDS011;20140;49.356;8.812;2022-12-29T07:51:50;2.87;;;1.87;;
33836;SDS011;20140;49.356;8.812;2022-12-29T07:54:15;2.22;;;1.20;;
33836;SDS011;20140;49.356;8.812;2022-12-29T07:56:43;1.58;;;1.48;;
33836;SDS011;20140;49.356;8.812;2022-12-29T07:59:09;3.83;;;1.80;;
33836;SDS011;20140;49.356;8.812;2022-12-29T08:01:34;4.03;;;1.87;;
33836;SDS011;20140;49.356;8.812;2022-12-29T08:04:00;4.00;;;1.70;;
33836;SDS011;20140;49.356;8.812;2022-12-29T08:06:25;4.90;;;2.20;;
33836;SDS011;20140;49.356;8.812;2022-12-29T08:08:53;3.33;;;1.30;;
33836;SDS011;20140;49.356;8.812;2022-12-29T08:11:18;3.10;;;1.40;;
33836;SDS011;20140;49.356;8.812;2022-12-29T08:13:44;2.22;;;1.65;;
33836;SDS011;20140;49.356;8.812;2022-12-29T08:16:09;2.17;;;1.37;;
33836;SDS011;20140;49.356;8.812;2022-12-29T08:18:34;1.67;;;1.10;;
33836;SDS011;20140;49.356;8.812;2022-12-29T08:21:03;3.33;;;1.50;;
33836;SDS011;20140;49.356;8.812;2022-12-29T08:23:30;2.17;;;1.25;;
33836;SDS011;20140;49.356;8.812;2022-12-29T08:25:57;3.03;;;1.60;;
33836;SDS011;20140;49.356;8.812;2022-12-29T08:28:23;2.97;;;1.80;;
33836;SDS011;20140;49.356;8.812;2022-12-29T08:30:49;2.92;;;1.52;;
33836;SDS011;20140;49.356;8.812;2022-12-29T08:33:14;4.40;;;2.30;;
33836;SDS011;20140;49.356;8.812;2022-12-29T08:35:40;4.27;;;2.00;;
33836;SDS011;20140;49.356;8.812;2022-12-29T08:38:05;2.33;;;1.63;;
33836;SDS011;20140;49.356;8.812;2022-12-29T08:40:31;2.17;;;1.38;;
33836;SDS011;20140;49.356;8.812;2022-12-29T08:42:56;4.43;;;1.80;;
33836;SDS011;20140;49.356;8.812;2022-12-29T08:45:22;8.60;;;2.47;;
33836;SDS011;20140;49.356;8.812;2022-12-29T08:47:47;2.10;;;1.75;;
33836;SDS011;20140;49.356;8.812;2022-12-29T08:50:13;3.72;;;2.08;;
33836;SDS011;20140;49.356;8.812;2022-12-29T08:52:38;3.73;;;1.80;;
33836;SDS011;20140;49.356;8.812;2022-12-29T08:55:04;3.30;;;1.87;;
33836;SDS011;20140;49.356;8.812;2022-12-29T08:57:30;3.60;;;1.50;;
33836;SDS011;20140;49.356;8.812;2022-12-29T08:59:55;3.37;;;1.70;;
33836;SDS011;20140;49.356;8.812;2022-12-29T09:02:21;2.25;;;1.45;;
33836;SDS011;20140;49.356;8.812;2022-12-29T09:04:46;3.67;;;1.87;;
33836;SDS011;20140;49.356;8.812;2022-12-29T09:07:11;2.23;;;1.50;;
33836;SDS011;20140;49.356;8.812;2022-12-29T09:09:37;5.03;;;1.92;;
33836;SDS011;20140;49.356;8.812;2022-12-29T09:12:02;3.38;;;1.83;;
33836;SDS011;20140;49.356;8.812;2022-12-29T09:14:28;3.37;;;1.70;;
33836;SDS011;20140;49.356;8.812;2022-12-29T09:16:54;2.90;;;1.57;;
33836;SDS011;20140;49.356;8.812;2022-12-29T09:19:38;2.33;;;1.70;;
33836;SDS011;20140;49.356;8.812;2022-12-29T09:22:03;4.33;;;1.73;;
33836;SDS011;20140;49.356;8.812;2022-12-29T09:24:29;3.17;;;2.00;;
33836;SDS011;20140;49.356;8.812;2022-12-29T09:26:55;2.13;;;1.38;;
33836;SDS011;20140;49.356;8.812;2022-12-29T09:29:21;4.40;;;2.25;;
33836;SDS011;20140;49.356;8.812;2022-12-29T09:31:47;3.03;;;1.52;;
33836;SDS011;20140;49.356;8.812;2022-12-29T09:34:12;3.07;;;1.77;;
33836;SDS011;20140;49.356;8.812;2022-12-29T09:36:38;2.80;;;1.60;;
33836;SDS011;20140;49.356;8.812;2022-12-29T09:39:03;3.75;;;1.60;;
33836;SDS011;20140;49.356;8.812;2022-12-29T09:41:35;4.03;;;1.50;;
33836;SDS011;20140;49.356;8.812;2022-12-29T09:44:13;2.67;;;1.45;;
33836;SDS011;20140;49.356;8.812;2022-12-29T09:47:13;2.58;;;1.85;;
33836;SDS011;20140;49.356;8.812;2022-12-29T09:49:44;2.53;;;1.30;;
33836;SDS011;20140;49.356;8.812;2022-12-29T09:55:14;3.17;;;1.90;;
33836;SDS011;20140;49.356;8.812;2022-12-29T10:00:27;2.17;;;1.42;;
33836;SDS011;20140;49.356;8.812;2022-12-29T10:03:05;3.13;;;2.00;;
33836;SDS011;20140;49.356;8.812;2022-12-29T10:05:43;1.52;;;1.15;;
33836;SDS011;20140;49.356;8.812;2022-12-29T10:08:22;3.28;;;2.13;;
33836;SDS011;20140;49.356;8.812;2022-12-29T10:11:05;3.53;;;1.30;;
33836;SDS011;20140;49.356;8.812;2022-12-29T10:16:35;2.40;;;1.85;;
33836;SDS011;20140;49.356;8.812;2022-12-29T10:19:28;3.10;;;1.50;;
33836;SDS011;20140;49.356;8.812;2022-12-29T10:22:17;4.13;;;1.30;;
33836;SDS011;20140;49.356;8.812;2022-12-29T10:24:48;6.97;;;2.55;;
33836;SDS011;20140;49.356;8.812;2022-12-29T10:27:16;2.08;;;1.05;;
33836;SDS011;20140;49.356;8.812;2022-12-29T10:29:44;4.10;;;1.75;;
33836;SDS011;20140;49.356;8.812;2022-12-29T10:34:50;2.78;;;1.58;;
33836;SDS011;20140;49.356;8.812;2022-12-29T10:39:53;3.25;;;1.20;;
33836;SDS011;20140;49.356;8.812;2022-12-29T10:42:34;2.55;;;1.52;;
33836;SDS011;20140;49.356;8.812;2022-12-29T10:45:02;4.40;;;2.08;;
33836;SDS011;20140;49.356;8.812;2022-12-29T10:47:30;6.30;;;1.70;;
33836;SDS011;20140;49.356;8.812;2022-12-29T10:49:59;1.88;;;1.67;;
33836;SDS011;20140;49.356;8.812;2022-12-29T10:52:27;3.78;;;1.80;;
33836;SDS011;20140;49.356;8.812;2022-12-29T10:57:37;2.05;;;1.75;;
33836;SDS011;20140;49.356;8.812;2022-12-29T11:00:24;2.90;;;1.33;;
33836;SDS011;20140;49.356;8.812;2022-12-29T11:05:41;1.85;;;0.90;;
33836;SDS011;20140;49.356;8.812;2022-12-29T11:08:16;2.05;;;1.20;;
33836;SDS011;20140;49.356;8.812;2022-12-29T11:10:45;2.33;;;1.33;;
33836;SDS011;20140;49.356;8.812;2022-12-29T11:13:17;1.70;;;0.70;;
33836;SDS011;20140;49.356;8.812;2022-12-29T11:15:49;1.15;;;0.75;;
33836;SDS011;20140;49.356;8.812;2022-12-29T11:18:26;2.03;;;0.90;;
33836;SDS011;20140;49.356;8.812;2022-12-29T11:20:58;0.95;;;0.60;;
33836;SDS011;20140;49.356;8.812;2022-12-29T11:23:30;1.70;;;1.10;;
33836;SDS011;20140;49.356;8.812;2022-12-29T11:28:37;2.03;;;1.23;;
33836;SDS011;20140;49.356;8.812;2022-12-29T11:31:04;2.30;;;1.25;;
33836;SDS011;20140;49.356;8.812;2022-12-29T11:33:31;1.75;;;1.00;;
33836;SDS011;20140;49.356;8.812;2022-12-29T11:35:59;1.00;;;0.80;;
33836;SDS011;20140;49.356;8.812;2022-12-29T11:38:35;1.48;;;1.00;;
33836;SDS011;20140;49.356;8.812;2022-12-29T11:41:03;1.23;;;1.00;;
33836;SDS011;20140;49.356;8.812;2022-12-29T11:43:36;1.70;;;0.88;;
33836;SDS011;20140;49.356;8.812;2022-12-29T11:46:04;1.63;;;1.45;;
33836;SDS011;20140;49.356;8.812;2022-12-29T11:48:32;3.37;;;1.53;;
33836;SDS011;20140;49.356;8.812;2022-12-29T11:51:03;2.78;;;1.45;;
33836;SDS011;20140;49.356;8.812;2022-12-29T11:56:13;2.22;;;1.20;;
33836;SDS011;20140;49.356;8.812;2022-12-29T11:58:41;4.07;;;2.05;;
33836;SDS011;20140;49.356;8.812;2022-12-29T12:01:13;3.92;;;1.98;;
33836;SDS011;20140;49.356;8.812;2022-12-29T12:04:18;2.10;;;1.17;;
33836;SDS011;20140;49.356;8.812;2022-12-29T12:06:44;1.85;;;1.50;;
33836;SDS011;20140;49.356;8.812;2022-12-29T12:09:14;3.35;;;1.58;;
33836;SDS011;20140;49.356;8.812;2022-12-29T12:11:47;2.05;;;1.15;;
33836;SDS011;20140;49.356;8.812;2022-12-29T12:14:23;2.88;;;1.20;;
33836;SDS011;20140;49.356;8.812;2022-12-29T12:17:16;0.88;;;0.85;;
33836;SDS011;20140;49.356;8.812;2022-12-29T12:19:48;5.75;;;1.23;;
33836;SDS011;20140;49.356;8.812;2022-12-29T12:25:37;4.30;;;1.50;;
33836;SDS011;20140;49.356;8.812;2022-12-29T12:30:46;4.35;;;1.25;;
33836;SDS011;20140;49.356;8.812;2022-12-29T12:33:20;3.38;;;1.08;;
33836;SDS011;20140;49.356;8.812;2022-12-29T12:42:33;1.70;;;1.17;;
33836;SDS011;20140;49.356;8.812;2022-12-29T12:45:10;1.77;;;1.10;;
33836;SDS011;20140;49.356;8.812;2022-12-29T12:47:58;1.92;;;1.10;;
33836;SDS011;20140;49.356;8.812;2022-12-29T12:50:52;1.35;;;0.98;;
33836;SDS011;20140;49.356;8.812;2022-12-29T12:59:35;1.83;;;1.00;;
33836;SDS011;20140;49.356;8.812;2022-12-29T13:02:22;1.03;;;0.90;;
33836;SDS011;20140;49.356;8.812;2022-12-29T13:07:59;2.40;;;1.30;;
33836;SDS011;20140;49.356;8.812;2022-12-29T13:10:42;2.05;;;1.10;;
33836;SDS011;20140;49.356;8.812;2022-12-29T13:24:11;3.08;;;2.00;;
33836;SDS011;20140;49.356;8.812;2022-12-29T13:26:48;3.55;;;2.00;;
33836;SDS011;20140;49.356;8.812;2022-12-29T13:37:45;11.90;;;7.75;;
33836;SDS011;20140;49.356;8.812;2022-12-29T13:40:17;4.13;;;2.93;;
33836;SDS011;20140;49.356;8.812;2022-12-29T13:42:47;3.90;;;1.92;;
33836;SDS011;20140;49.356;8.812;2022-12-29T13:45:15;5.05;;;1.88;;
33836;SDS011;20140;49.356;8.812;2022-12-29T13:47:47;4.03;;;1.80;;
33836;SDS011;20140;49.356;8.812;2022-12-29T13:50:31;1.98;;;1.40;;
33836;SDS011;20140;49.356;8.812;2022-12-29T13:55:57;3.27;;;1.43;;
33836;SDS011;20140;49.356;8.812;2022-12-29T13:58:38;2.33;;;1.27;;
33836;SDS011;20140;49.356;8.812;2022-12-29T14:01:22;2.50;;;1.20;;
33836;SDS011;20140;49.356;8.812;2022-12-29T14:03:58;1.35;;;1.25;;
33836;SDS011;20140;49.356;8.812;2022-12-29T14:08:58;2.17;;;1.50;;
33836;SDS011;20140;49.356;8.812;2022-12-29T14:11:32;3.75;;;1.17;;
33836;SDS011;20140;49.356;8.812;2022-12-29T14:14:25;2.10;;;1.20;;
33836;SDS011;20140;49.356;8.812;2022-12-29T14:16:52;1.92;;;1.30;;
33836;SDS011;20140;49.356;8.812;2022-12-29T14:19:29;2.70;;;1.30;;
33836;SDS011;20140;49.356;8.812;2022-12-29T14:27:01;2.10;;;1.60;;
33836;SDS011;20140;49.356;8.812;2022-12-29T14:29:46;5.80;;;1.58;;
33836;SDS011;20140;49.356;8.812;2022-12-29T14:37:45;2.88;;;1.48;;
33836;SDS011;20140;49.356;8.812;2022-12-29T14:40:16;2.35;;;1.50;;
33836;SDS011;20140;49.356;8.812;2022-12-29T14:42:50;3.07;;;1.60;;
33836;SDS011;20140;49.356;8.812;2022-12-29T14:47:54;2.83;;;1.45;;
33836;SDS011;20140;49.356;8.812;2022-12-29T14:52:46;5.68;;;1.83;;
33836;SDS011;20140;49.356;8.812;2022-12-29T14:57:42;3.30;;;1.65;;
33836;SDS011;20140;49.356;8.812;2022-12-29T15:00:21;6.20;;;3.38;;
33836;SDS011;20140;49.356;8.812;2022-12-29T15:02:50;2.60;;;1.53;;
33836;SDS011;20140;49.356;8.812;2022-12-29T15:05:40;2.97;;;1.20;;
33836;SDS011;20140;49.356;8.812;2022-12-29T15:08:09;2.45;;;1.73;;
33836;SDS011;20140;49.356;8.812;2022-12-29T15:10:38;3.30;;;1.20;;
33836;SDS011;20140;49.356;8.812;2022-12-29T15:13:17;1.85;;;1.17;;
33836;SDS011;20140;49.356;8.812;2022-12-29T15:15:47;2.30;;;1.27;;
33836;SDS011;20140;49.356;8.812;2022-12-29T15:18:28;2.63;;;1.00;;
33836;SDS011;20140;49.356;8.812;2022-12-29T15:20:57;3.45;;;1.00;;
33836;SDS011;20140;49.356;8.812;2022-12-29T15:23:24;4.85;;;1.40;;
33836;SDS011;20140;49.356;8.812;2022-12-29T15:28:24;1.83;;;0.98;;
33836;SDS011;20140;49.356;8.812;2022-12-29T15:30:55;2.08;;;1.40;;
33836;SDS011;20140;49.356;8.812;2022-12-29T15:33:26;1.15;;;0.52;;
33836;SDS011;20140;49.356;8.812;2022-12-29T15:35:53;1.47;;;0.90;;
33836;SDS011;20140;49.356;8.812;2022-12-29T15:38:26;2.65;;;0.47;;
33836;SDS011;20140;49.356;8.812;2022-12-29T15:40:55;1.10;;;0.77;;
33836;SDS011;20140;49.356;8.812;2022-12-29T15:43:40;1.60;;;0.50;;
33836;SDS011;20140;49.356;8.812;2022-12-29T15:46:27;0.75;;;0.57;;
33836;SDS011;20140;49.356;8.812;2022-12-29T15:48:56;2.35;;;0.80;;
33836;SDS011;20140;49.356;8.812;2022-12-29T15:51:24;2.87;;;1.50;;
33836;SDS011;20140;49.356;8.812;2022-12-29T15:53:55;1.37;;;0.80;;
33836;SDS011;20140;49.356;8.812;2022-12-29T15:56:22;2.15;;;0.95;;
33836;SDS011;20140;49.356;8.812;2022-12-29T15:58:49;1.63;;;0.90;;
33836;SDS011;20140;49.356;8.812;2022-12-29T16:03:58;1.17;;;1.00;;
33836;SDS011;20140;49.356;8.812;2022-12-29T16:06:32;1.75;;;0.82;;
33836;SDS011;20140;49.356;8.812;2022-12-29T16:09:00;3.00;;;1.00;;
33836;SDS011;20140;49.356;8.812;2022-12-29T16:11:30;1.00;;;0.90;;
33836;SDS011;20140;49.356;8.812;2022-12-29T16:14:02;1.77;;;1.10;;
33836;SDS011;20140;49.356;8.812;2022-12-29T16:16:39;2.20;;;1.70;;
33836;SDS011;20140;49.356;8.812;2022-12-29T16:19:12;6.32;;;2.47;;
33836;SDS011;20140;49.356;8.812;2022-12-29T16:21:40;4.15;;;2.58;;
33836;SDS011;20140;49.356;8.812;2022-12-29T16:24:09;5.10;;;2.97;;
33836;SDS011;20140;49.356;8.812;2022-12-29T16:26:44;5.15;;;3.38;;
33836;SDS011;20140;49.356;8.812;2022-12-29T16:29:14;4.50;;;3.58;;
33836;SDS011;20140;49.356;8.812;2022-12-29T16:31:51;3.70;;;2.90;;
33836;SDS011;20140;49.356;8.812;2022-12-29T16:37:03;5.15;;;2.85;;
33836;SDS011;20140;49.356;8.812;2022-12-29T16:39:45;3.53;;;3.22;;
33836;SDS011;20140;49.356;8.812;2022-12-29T16:45:04;4.15;;;3.70;;
33836;SDS011;20140;49.356;8.812;2022-12-29T16:50:33;4.80;;;4.05;;
33836;SDS011;20140;49.356;8.812;2022-12-29T16:53:00;6.68;;;4.57;;
33836;SDS011;20140;49.356;8.812;2022-12-29T16:55:28;4.30;;;3.90;;
33836;SDS011;20140;49.356;8.812;2022-12-29T16:57:54;4.15;;;3.42;;
33836;SDS011;20140;49.356;8.812;2022-12-29T17:00:22;4.60;;;2.17;;
33836;SDS011;20140;49.356;8.812;2022-12-29T17:02:50;5.63;;;2.50;;
33836;SDS011;20140;49.356;8.812;2022-12-29T17:05:27;3.85;;;2.50;;
33836;SDS011;20140;49.356;8.812;2022-12-29T17:07:52;3.50;;;2.05;;
33836;SDS011;20140;49.356;8.812;2022-12-29T17:10:18;3.37;;;2.47;;
33836;SDS011;20140;49.356;8.812;2022-12-29T17:12:44;5.40;;;2.37;;